Friday, July 31, 2015, 7:23 PM EDT

KRDG, Reading Regional Airport

Location: Reading, PA, United States Lat: 40.367
Local Time: 7:23 PM EDT (23:23 GMT) Lon: -75.967
Time Zone: US/Eastern Elev: 344 ft

Show me the last for .
Show Decoded

2015-07-31 18:54 METAR KRDG 312254Z 27005KT 10SM CLR 29/16 A2983 RMK AO2 SLP102 T02890156 =
2015-07-31 17:54 METAR KRDG 312154Z 26008KT 10SM CLR 30/14 A2984 RMK AO2 SLP106 T03000144 =
2015-07-31 16:54 METAR KRDG 312054Z 26008KT 10SM CLR 30/14 A2985 RMK AO2 SLP109 T03000144 56013 =
2015-07-31 15:54 METAR KRDG 311954Z 26008KT 10SM CLR 30/14 A2986 RMK AO2 SLP113 T03000139 =
2015-07-31 14:54 METAR KRDG 311854Z 26011KT 10SM CLR 31/14 A2987 RMK AO2 SLP118 T03060144 =
2015-07-31 13:54 METAR KRDG 311754Z 26009KT 10SM SCT065 30/14 A2989 RMK AO2 SLP123 T03000139
                 10306 20217 57010 =
2015-07-31 12:54 METAR KRDG 311654Z 25007KT 10SM FEW060 30/16 A2989 RMK AO2 SLP125 T03000161 =
2015-07-31 11:54 METAR KRDG 311554Z 33004KT 10SM CLR 28/16 A2991 RMK AO2 SLP131 T02830156 =
2015-07-31 10:54 METAR KRDG 311454Z 28005KT 10SM R36/0800VP6000FT CLR 28/17 A2992 =
2015-07-31 09:54 METAR KRDG 311354Z 27004KT 10SM CLR 26/17 A2992 RMK AO2 SLP134 T02610167 =
2015-07-31 08:54 METAR KRDG 311254Z 27005KT 10SM CLR 24/16 A2992 =
2015-07-31 07:54 METAR KRDG 311154Z 26003KT 10SM CLR 22/16 A2992 RMK AO2 SLP135 70141 T02170161
                 10217 20172 53011 =
2015-07-31 06:54 METAR KRDG 311054Z 00000KT 10SM CLR 19/17 A2991 RMK AO2 SLP129 T01890167 =
2015-07-31 05:54 METAR KRDG 310954Z 00000KT 6SM BR CLR 18/17 A2989 RMK AO2 SLP125 T01780167 =
2015-07-31 04:54 METAR KRDG 310854Z 00000KT 10SM CLR 18/17 A2989 RMK AO2 SLP124 T01830167 50002 =
2015-07-31 03:54 METAR KRDG 310754Z 00000KT 10SM CLR 21/16 A2989 RMK AO2 SLP125 T02060156 =
2015-07-31 02:54 METAR KRDG 310654Z 25004KT 10SM CLR 21/17 A2989 RMK AO2 SLP124 T02060167 =
2015-07-31 01:54 METAR KRDG 310554Z 00000KT 10SM CLR 20/18 A2989 RMK AO2 SLP124 T02000178 10278
                 20200 50006 =
2015-07-31 00:54 METAR KRDG 310454Z 30005KT 10SM CLR 22/18 A2989 RMK AO2 SLP124 T02170178
                 403000211 =
2015-07-30 23:54 METAR KRDG 310354Z 29005KT 10SM FEW075 23/18 A2989 RMK AO2 SLP121 T02330183 =
2015-07-30 22:54 METAR KRDG 310254Z 29007KT 10SM FEW075 25/18 A2987 RMK AO2 SLP115 T02500178
                 51012 =
2015-07-30 21:54 METAR KRDG 310154Z 27004KT 10SM SCT070 24/19 A2987 =
2015-07-30 20:54 METAR KRDG 310054Z 26004KT 10SM CLR 26/19 A2985 RMK AO2 SLP112 T02560194 =
2015-07-30 19:54 METAR KRDG 302354Z 24006KT 10SM CLR 28/21 A2983 RMK AO2 SLP103 60000 T02780206
                 10289 20233 53008 =

Support USWX by starting your Amazon purchase here.